Time;durP1;ratioP1;P1;durP2;ratioP2;P2;SDS_P1;SDS_P2;PMS_P1;PMS_P2;Temp;Humidity;BMP_temperature;BMP_pressure;BME280_temperature;BME280_humidity;BME280_pressure;Samples;Min_cycle;Max_cycle;Signal;HPM_P1;HPM_P2
2021/04/27 00:00:05;;;;;;;2.00;1.20;;;4.70;1.00;;;;;;5056616;28;20212;-62
2021/04/27 00:02:31;;;;;;;2.55;1.88;;;4.70;1.00;;;;;;5057000;28;20631;-62
2021/04/27 00:04:56;;;;;;;1.60;1.43;;;4.80;1.00;;;;;;5056064;28;20237;-62
2021/04/27 00:07:22;;;;;;;5.07;2.20;;;4.60;1.00;;;;;;5056723;28;20247;-62
2021/04/27 00:09:48;;;;;;;2.30;1.40;;;4.70;1.00;;;;;;5056543;28;20196;-62
2021/04/27 00:12:13;;;;;;;3.83;1.57;;;4.70;1.00;;;;;;5056478;28;20172;-62
2021/04/27 00:14:39;;;;;;;2.70;1.60;;;4.70;1.00;;;;;;5056106;28;20214;-62
2021/04/27 00:17:05;;;;;;;1.63;1.53;;;4.70;1.00;;;;;;5056425;28;20647;-62
2021/04/27 00:19:31;;;;;;;3.75;1.88;;;4.60;1.00;;;;;;5056364;28;20195;-62
2021/04/27 00:21:56;;;;;;;5.13;2.30;;;4.60;1.00;;;;;;5056485;28;20184;-62
2021/04/27 00:24:22;;;;;;;2.63;1.77;;;4.60;1.00;;;;;;5056089;28;20191;-63
2021/04/27 00:26:48;;;;;;;3.67;1.37;;;4.60;1.00;;;;;;5056564;28;20622;-63
2021/04/27 00:29:14;;;;;;;2.13;1.73;;;4.60;1.00;;;;;;5056194;28;20258;-63
2021/04/27 00:31:39;;;;;;;1.60;1.30;;;4.50;1.00;;;;;;5056463;28;20181;-63
2021/04/27 00:34:05;;;;;;;2.00;1.23;;;4.40;1.00;;;;;;5055655;28;20793;-63
2021/04/27 00:36:31;;;;;;;3.67;2.10;;;4.50;1.00;;;;;;5056448;28;20267;-63
2021/04/27 00:38:57;;;;;;;2.53;1.60;;;4.40;1.00;;;;;;5056326;28;20262;-63
2021/04/27 00:41:23;;;;;;;4.53;2.40;;;4.40;1.00;;;;;;5055981;28;20176;-63
2021/04/27 00:43:49;;;;;;;2.42;2.08;;;4.40;1.00;;;;;;5055885;28;20225;-63
2021/04/27 00:46:15;;;;;;;2.40;1.80;;;4.40;1.00;;;;;;5056227;28;20213;-63
2021/04/27 00:48:40;;;;;;;3.27;1.97;;;4.30;1.00;;;;;;5056243;28;20561;-63
2021/04/27 00:51:06;;;;;;;3.40;2.47;;;4.30;1.00;;;;;;5056135;28;20177;-63
2021/04/27 00:53:32;;;;;;;2.70;1.60;;;4.40;1.00;;;;;;5056175;28;20206;-63
2021/04/27 00:55:58;;;;;;;2.08;1.80;;;4.60;1.00;;;;;;5054838;28;20526;-63
2021/04/27 00:58:26;;;;;;;2.87;1.67;;;4.50;1.00;;;;;;5056401;28;20187;-63
2021/04/27 01:00:52;;;;;;;4.32;2.55;;;4.50;1.00;;;;;;5056211;28;20194;-63
2021/04/27 01:03:20;;;;;;;6.53;3.75;;;4.50;1.00;;;;;;5055791;28;20203;-63
2021/04/27 01:05:47;;;;;;;4.82;2.63;;;4.50;1.00;;;;;;5054892;28;20248;-63
2021/04/27 01:08:38;;;;;;;8.13;3.60;;;4.50;1.00;;;;;;5055258;28;20180;-64
2021/04/27 01:11:15;;;;;;;6.60;3.45;;;4.60;1.00;;;;;;5055430;28;20238;-63
2021/04/27 01:14:11;;;;;;;3.53;2.28;;;4.40;1.00;;;;;;5055141;28;20514;-63
2021/04/27 01:16:45;;;;;;;3.22;1.70;;;4.30;1.00;;;;;;5055342;28;20169;-63
2021/04/27 01:19:28;;;;;;;2.13;1.88;;;4.40;1.00;;;;;;5055151;28;20186;-63
2021/04/27 01:21:55;;;;;;;3.13;2.00;;;4.30;1.00;;;;;;5055195;28;20175;-63
2021/04/27 01:24:25;;;;;;;3.63;2.00;;;4.30;1.00;;;;;;5054733;28;20198;-64
2021/04/27 01:26:54;;;;;;;4.40;2.00;;;4.30;1.00;;;;;;5054936;28;20177;-63
2021/04/27 01:29:23;;;;;;;2.60;1.60;;;4.30;1.00;;;;;;5070858;28;20263;-64
2021/04/27 01:31:50;;;;;;;4.35;1.95;;;4.30;1.00;;;;;;5054884;28;20556;-64
2021/04/27 01:34:28;;;;;;;2.05;1.50;;;4.20;1.00;;;;;;5054881;28;20591;-63
2021/04/27 01:36:54;;;;;;;3.40;1.80;;;4.10;1.00;;;;;;5055449;28;20184;-63
2021/04/27 01:39:25;;;;;;;4.10;1.98;;;4.10;9.20;;;;;;5054275;28;20185;-63
2021/04/27 01:41:52;;;;;;;4.32;1.83;;;4.00;9.70;;;;;;5055081;28;20176;-63
2021/04/27 01:44:19;;;;;;;4.90;2.40;;;3.90;26.50;;;;;;5054870;28;20612;-64
2021/04/27 01:46:45;;;;;;;3.25;2.25;;;3.90;10.40;;;;;;5054796;28;20526;-62
2021/04/27 01:49:12;;;;;;;1.60;1.50;;;4.00;6.70;;;;;;5054865;28;20628;-63
2021/04/27 01:51:39;;;;;;;5.13;1.60;;;4.00;1.00;;;;;;5055179;28;20180;-63
2021/04/27 01:54:04;;;;;;;2.60;2.00;;;3.90;1.00;;;;;;5054695;28;20241;-64
2021/04/27 01:56:30;;;;;;;1.40;1.30;;;3.90;1.00;;;;;;5054610;28;20180;-64
2021/04/27 01:58:56;;;;;;;2.40;1.40;;;3.80;1.00;;;;;;5054958;28;20495;-64
2021/04/27 02:01:22;;;;;;;3.25;2.10;;;3.80;1.00;;;;;;5054699;28;20180;-63
2021/04/27 02:03:48;;;;;;;2.47;1.73;;;3.80;1.00;;;;;;5054576;28;20720;-63
2021/04/27 02:06:15;;;;;;;2.55;1.88;;;3.90;1.00;;;;;;5054519;28;20466;-63
2021/04/27 02:08:47;;;;;;;3.15;1.95;;;3.80;1.00;;;;;;5054497;28;20184;-63
2021/04/27 02:11:16;;;;;;;2.08;1.38;;;3.80;1.00;;;;;;5054688;28;20187;-65
2021/04/27 02:13:42;;;;;;;4.25;2.47;;;3.80;1.00;;;;;;5054529;28;20210;-65
2021/04/27 02:16:09;;;;;;;2.57;1.47;;;3.90;1.00;;;;;;5054590;28;20187;-66
2021/04/27 02:18:38;;;;;;;4.03;1.98;;;3.90;1.00;;;;;;5052314;28;20245;-63
2021/04/27 02:21:05;;;;;;;4.07;2.22;;;3.80;1.00;;;;;;5054284;28;20179;-63
2021/04/27 02:23:32;;;;;;;2.75;1.90;;;3.70;1.00;;;;;;5053793;28;20179;-62
2021/04/27 02:25:59;;;;;;;3.83;1.95;;;3.70;1.00;;;;;;5053867;28;20238;-62
2021/04/27 02:28:26;;;;;;;2.50;1.45;;;3.70;1.00;;;;;;5054129;28;20209;-63
2021/04/27 02:30:52;;;;;;;4.70;1.67;;;3.70;14.20;;;;;;5052961;28;20195;-63
2021/04/27 02:33:19;;;;;;;2.08;1.67;;;3.70;11.30;;;;;;5053663;28;20179;-63
2021/04/27 02:35:47;;;;;;;1.70;1.60;;;3.70;6.50;;;;;;5053632;28;20186;-64
2021/04/27 02:38:16;;;;;;;6.40;2.40;;;3.70;1.00;;;;;;5054558;28;20182;-63
2021/04/27 02:40:42;;;;;;;3.20;1.95;;;3.60;4.60;;;;;;5053960;28;20175;-64
2021/04/27 02:43:08;;;;;;;2.53;2.33;;;3.60;1.00;;;;;;5053488;28;20185;-63
2021/04/27 02:45:34;;;;;;;1.95;1.65;;;3.50;1.00;;;;;;5053450;28;20205;-62
2021/04/27 02:48:10;;;;;;;2.37;1.47;;;3.40;11.00;;;;;;5053692;28;20174;-63
2021/04/27 02:50:36;;;;;;;2.92;1.98;;;3.40;41.40;;;;;;5053533;28;20808;-63
2021/04/27 02:53:02;;;;;;;3.20;1.70;;;3.30;82.50;;;;;;5053413;28;20188;-63
2021/04/27 02:55:28;;;;;;;3.13;1.67;;;3.20;99.90;;;;;;5052979;28;20202;-63
2021/04/27 02:57:53;;;;;;;4.00;2.03;;;3.30;99.90;;;;;;5053518;28;20236;-63
2021/04/27 03:00:19;;;;;;;6.00;1.63;;;3.40;99.90;;;;;;5053573;28;20181;-63
2021/04/27 03:02:45;;;;;;;3.30;1.80;;;3.30;99.90;;;;;;5053354;28;20650;-63
2021/04/27 03:05:11;;;;;;;3.03;2.00;;;3.20;99.90;;;;;;5052683;28;20980;-63
2021/04/27 03:07:36;;;;;;;7.93;1.73;;;3.30;99.90;;;;;;5053004;28;20180;-63
2021/04/27 03:10:06;;;;;;;3.07;2.00;;;3.40;99.90;;;;;;5052786;28;20203;-63
2021/04/27 03:12:31;;;;;;;2.03;1.65;;;3.40;99.90;;;;;;5053228;28;20206;-63
2021/04/27 03:14:57;;;;;;;2.77;1.70;;;3.30;99.90;;;;;;5052802;28;20188;-62
2021/04/27 03:17:23;;;;;;;2.27;1.90;;;3.30;99.90;;;;;;5052770;28;20622;-62
2021/04/27 03:19:48;;;;;;;1.73;1.40;;;3.20;99.90;;;;;;5052987;28;20266;-62
2021/04/27 03:22:14;;;;;;;2.30;1.80;;;3.20;99.90;;;;;;5053394;28;20179;-63
2021/04/27 03:24:39;;;;;;;1.97;1.67;;;3.20;99.90;;;;;;5052679;28;20207;-63
2021/04/27 03:27:05;;;;;;;3.23;2.17;;;3.20;99.90;;;;;;5053384;28;20600;-63
2021/04/27 03:29:31;;;;;;;5.37;1.83;;;3.20;99.90;;;;;;5052982;28;20698;-63
2021/04/27 03:31:56;;;;;;;3.77;3.10;;;3.20;99.90;;;;;;5053192;28;20207;-63
2021/04/27 03:34:22;;;;;;;3.77;1.70;;;3.00;99.90;;;;;;5052735;28;20502;-63
2021/04/27 03:36:48;;;;;;;3.00;2.23;;;2.90;1.00;;;;;;5053522;28;20182;-63
2021/04/27 03:39:13;;;;;;;1.97;1.43;;;3.00;1.00;;;;;;5053423;28;20177;-63
2021/04/27 03:41:39;;;;;;;1.80;1.47;;;3.00;1.00;;;;;;5052942;28;20176;-63
2021/04/27 03:44:05;;;;;;;2.47;2.10;;;3.10;1.00;;;;;;5052787;28;20237;-63
2021/04/27 03:46:30;;;;;;;2.93;1.90;;;3.10;1.00;;;;;;5053166;28;20223;-63
2021/04/27 03:48:56;;;;;;;3.23;2.13;;;3.00;1.00;;;;;;5053243;28;20454;-62
2021/04/27 03:51:21;;;;;;;2.90;1.70;;;3.10;1.00;;;;;;5053010;28;20682;-64
2021/04/27 03:53:47;;;;;;;2.40;1.77;;;3.10;1.00;;;;;;5052468;28;20625;-64
2021/04/27 03:56:13;;;;;;;3.33;2.30;;;3.20;1.00;;;;;;5052743;28;20306;-64
2021/04/27 03:58:40;;;;;;;6.63;2.20;;;3.20;1.00;;;;;;5050617;28;20578;-64
2021/04/27 04:01:06;;;;;;;3.53;1.75;;;3.20;1.00;;;;;;5052999;28;20926;-61
2021/04/27 04:03:31;;;;;;;3.05;2.35;;;3.10;1.00;;;;;;5052443;28;20556;-62
2021/04/27 04:05:57;;;;;;;2.40;1.43;;;3.10;33.20;;;;;;5052200;28;20207;-63
2021/04/27 04:08:23;;;;;;;2.57;2.33;;;3.10;99.90;;;;;;5052370;28;20190;-63
2021/04/27 04:10:48;;;;;;;3.20;1.80;;;3.10;99.90;;;;;;5053042;28;20176;-61
2021/04/27 04:13:14;;;;;;;2.97;1.83;;;3.20;99.90;;;;;;5052458;28;20226;-63
2021/04/27 04:15:40;;;;;;;3.10;2.43;;;3.20;99.90;;;;;;5051959;28;20520;-63
2021/04/27 04:18:05;;;;;;;4.80;2.50;;;3.20;99.90;;;;;;5051636;28;20433;-63
2021/04/27 04:20:31;;;;;;;3.73;2.17;;;3.20;99.90;;;;;;5051619;28;20286;-63
2021/04/27 04:22:57;;;;;;;2.80;2.10;;;3.20;99.90;;;;;;5052645;28;20208;-64
2021/04/27 04:25:22;;;;;;;5.60;1.87;;;3.10;99.90;;;;;;5052007;28;20216;-64
2021/04/27 04:27:48;;;;;;;1.90;1.70;;;3.20;99.90;;;;;;5052788;28;20417;-63
2021/04/27 04:30:20;;;;;;;6.30;2.47;;;3.30;99.90;;;;;;5052484;28;20233;-64
2021/04/27 04:32:47;;;;;;;3.38;2.38;;;3.50;99.90;;;;;;5052626;28;20184;-64
2021/04/27 04:35:15;;;;;;;3.53;1.70;;;3.60;99.90;;;;;;5051992;28;20208;-62
2021/04/27 04:37:41;;;;;;;2.92;1.92;;;3.80;90.60;;;;;;5052536;28;20177;-62
2021/04/27 04:40:09;;;;;;;2.03;1.83;;;4.90;1.00;;;;;;5052342;28;20184;-62
2021/04/27 04:42:34;;;;;;;2.15;2.05;;;6.10;16.80;;;;;;5056202;28;20193;-63
2021/04/27 04:45:00;;;;;;;2.53;1.90;;;6.90;1.00;;;;;;5055332;28;20563;-65
2021/04/27 04:47:25;;;;;;;3.97;1.80;;;7.50;1.00;;;;;;5055873;28;20181;-65
2021/04/27 04:49:51;;;;;;;3.43;2.30;;;8.10;1.00;;;;;;5056136;28;20174;-65
2021/04/27 04:52:20;;;;;;;1.63;1.40;;;8.20;1.00;;;;;;5055824;28;20213;-65
2021/04/27 04:54:45;;;;;;;3.75;1.65;;;8.80;1.00;;;;;;5054728;28;20217;-65
2021/04/27 04:57:11;;;;;;;2.60;1.93;;;9.10;1.00;;;;;;5055533;28;20177;-62
2021/04/27 04:59:36;;;;;;;6.20;1.80;;;9.70;1.00;;;;;;5055648;28;20192;-62
2021/04/27 05:02:02;;;;;;;2.53;1.80;;;9.90;1.00;;;;;;5055565;28;20220;-64
2021/04/27 05:04:27;;;;;;;2.93;1.63;;;9.30;1.00;;;;;;5054859;28;20224;-64
2021/04/27 05:07:04;;;;;;;8.03;2.07;;;9.60;1.00;;;;;;5055426;28;20179;-65
2021/04/27 05:09:30;;;;;;;5.03;1.88;;;10.00;1.00;;;;;;5055297;28;20189;-64
2021/04/27 05:11:57;;;;;;;3.07;2.03;;;10.80;1.00;;;;;;5055273;28;20177;-64
2021/04/27 05:14:23;;;;;;;2.85;2.00;;;11.20;1.00;;;;;;5054505;28;20186;-64
2021/04/27 05:16:48;;;;;;;2.10;1.80;;;11.10;1.00;;;;;;5054476;28;20180;-64
2021/04/27 05:19:14;;;;;;;7.93;1.53;;;11.40;1.00;;;;;;5055245;28;20427;-65
2021/04/27 05:21:40;;;;;;;2.47;1.73;;;11.40;1.00;;;;;;5054444;28;20190;-65
2021/04/27 05:24:07;;;;;;;2.08;1.80;;;11.60;1.00;;;;;;5053779;28;20612;-67
2021/04/27 05:26:33;;;;;;;2.67;1.90;;;11.80;1.00;;;;;;5055032;28;20214;-66
2021/04/27 05:28:59;;;;;;;3.63;1.88;;;12.40;1.00;;;;;;5054775;28;20200;-66
2021/04/27 05:31:24;;;;;;;2.33;1.80;;;12.40;1.00;;;;;;5055231;28;20187;-66
2021/04/27 05:33:50;;;;;;;4.57;1.97;;;13.20;1.00;;;;;;5054360;28;20645;-66
2021/04/27 05:36:15;;;;;;;3.10;2.47;;;12.90;1.00;;;;;;5054512;28;20180;-66
2021/04/27 05:38:41;;;;;;;2.37;1.80;;;12.50;1.00;;;;;;5054819;28;20211;-66
2021/04/27 05:41:07;;;;;;;6.17;2.40;;;12.90;1.00;;;;;;5054770;28;20196;-66
2021/04/27 05:43:32;;;;;;;2.73;1.97;;;12.30;1.00;;;;;;5054327;28;20184;-65
2021/04/27 05:45:58;;;;;;;3.70;2.50;;;12.40;1.00;;;;;;5054030;28;20658;-63
2021/04/27 05:48:23;;;;;;;2.40;1.90;;;12.30;1.00;;;;;;5054541;28;20180;-65
2021/04/27 05:50:49;;;;;;;4.03;3.23;;;12.40;1.00;;;;;;5054523;28;20559;-64
2021/04/27 05:53:14;;;;;;;2.70;2.30;;;13.30;1.00;;;;;;5053903;28;20173;-63
2021/04/27 05:55:41;;;;;;;5.30;2.77;;;13.80;1.00;;;;;;5054260;28;20267;-64
2021/04/27 05:58:07;;;;;;;3.45;2.10;;;13.40;1.00;;;;;;5054321;28;20288;-63
2021/04/27 06:00:33;;;;;;;3.70;1.90;;;14.20;1.00;;;;;;5054263;28;20184;-63
2021/04/27 06:02:59;;;;;;;2.35;1.70;;;13.20;1.00;;;;;;5054203;28;20181;-63
2021/04/27 06:05:25;;;;;;;4.30;2.10;;;12.90;1.00;;;;;;5053373;28;20283;-63
2021/04/27 06:07:50;;;;;;;3.97;2.30;;;12.40;1.00;;;;;;5053901;28;20181;-63
2021/04/27 06:10:16;;;;;;;2.50;1.53;;;11.60;1.00;;;;;;5054101;28;20196;-63
2021/04/27 06:12:42;;;;;;;1.93;1.50;;;12.10;1.00;;;;;;5054103;28;20649;-63
2021/04/27 06:15:08;;;;;;;2.53;2.00;;;12.30;1.00;;;;;;5053365;28;20441;-63
2021/04/27 06:17:35;;;;;;;3.22;2.08;;;12.30;1.00;;;;;;5053534;28;20286;-63
2021/04/27 06:20:04;;;;;;;2.33;1.45;;;12.10;1.00;;;;;;5053849;28;20225;-62
2021/04/27 06:22:30;;;;;;;1.17;1.00;;;11.90;1.00;;;;;;5053900;28;20196;-62
2021/04/27 06:24:55;;;;;;;2.43;2.00;;;10.80;1.00;;;;;;5052832;28;20215;-62
2021/04/27 06:27:23;;;;;;;3.80;2.00;;;11.70;1.00;;;;;;5053209;28;20177;-63
2021/04/27 06:29:49;;;;;;;4.00;1.80;;;13.00;1.00;;;;;;5053948;28;20661;-65
2021/04/27 06:32:15;;;;;;;3.08;2.28;;;14.50;1.00;;;;;;5054157;28;20593;-63
2021/04/27 06:34:40;;;;;;;8.13;2.13;;;14.20;1.00;;;;;;5052905;28;20181;-63
2021/04/27 06:37:06;;;;;;;2.20;2.00;;;14.30;1.00;;;;;;5051129;28;20185;-62
2021/04/27 06:39:32;;;;;;;5.40;1.90;;;14.50;1.00;;;;;;5050756;28;20188;-67
2021/04/27 06:41:57;;;;;;;2.00;1.80;;;14.00;1.00;;;;;;5050624;28;20181;-66
2021/04/27 06:44:23;;;;;;;2.90;2.07;;;14.10;1.00;;;;;;5050022;28;20451;-66
2021/04/27 06:46:48;;;;;;;3.67;1.83;;;13.40;1.00;;;;;;5050942;28;20185;-66
2021/04/27 06:49:14;;;;;;;2.07;1.67;;;14.50;1.00;;;;;;5051368;28;20494;-63
2021/04/27 06:51:39;;;;;;;2.17;1.97;;;14.40;1.00;;;;;;5051082;28;20576;-65
2021/04/27 06:54:05;;;;;;;4.73;2.30;;;14.20;1.00;;;;;;5051479;28;20185;-65
2021/04/27 06:56:31;;;;;;;8.00;1.97;;;14.10;1.00;;;;;;5053144;28;20192;-65
2021/04/27 06:58:57;;;;;;;2.72;1.70;;;15.00;1.00;;;;;;5053405;28;20529;-66
2021/04/27 07:01:22;;;;;;;2.60;1.63;;;13.90;1.00;;;;;;5053278;28;20609;-66
2021/04/27 07:03:49;;;;;;;2.70;1.80;;;13.40;1.00;;;;;;5051866;28;20653;-66
2021/04/27 07:06:14;;;;;;;1.95;1.58;;;14.10;1.00;;;;;;5053104;28;20528;-65
2021/04/27 07:08:41;;;;;;;3.50;2.00;;;13.70;1.00;;;;;;5053323;28;20195;-64
2021/04/27 07:11:07;;;;;;;3.30;1.85;;;14.20;1.00;;;;;;5053088;28;20172;-64
2021/04/27 07:13:33;;;;;;;2.10;1.83;;;14.20;1.00;;;;;;5053640;28;20181;-64
2021/04/27 07:15:59;;;;;;;3.10;1.93;;;13.30;1.00;;;;;;5052840;28;20185;-65
2021/04/27 07:18:25;;;;;;;2.55;1.88;;;12.20;1.00;;;;;;5052505;28;20187;-65
2021/04/27 07:20:50;;;;;;;3.70;2.00;;;10.90;1.00;;;;;;5047586;28;20188;-64
2021/04/27 07:23:16;;;;;;;2.40;2.10;;;9.60;1.00;;;;;;5059047;28;20276;-65
2021/04/27 07:25:42;;;;;;;2.00;1.80;;;9.00;1.00;;;;;;5053200;28;20217;-65
2021/04/27 07:28:07;;;;;;;3.07;2.10;;;9.10;1.00;;;;;;5052846;28;20274;-62
2021/04/27 07:30:34;;;;;;;2.57;2.37;;;9.20;1.00;;;;;;5072809;28;20438;-64
2021/04/27 07:33:00;;;;;;;2.95;2.58;;;9.60;1.00;;;;;;5073192;28;20236;-64
2021/04/27 07:35:26;;;;;;;2.70;2.17;;;9.80;1.00;;;;;;5072662;28;20177;-64
2021/04/27 07:37:52;;;;;;;5.53;2.10;;;9.10;1.00;;;;;;5063154;28;20185;-65
2021/04/27 07:40:18;;;;;;;2.45;2.10;;;8.90;1.00;;;;;;5051267;28;20198;-65
2021/04/27 07:42:44;;;;;;;2.47;1.70;;;8.90;1.00;;;;;;5053180;28;20169;-66
2021/04/27 07:45:14;;;;;;;3.30;2.20;;;8.90;1.00;;;;;;5051054;28;20697;-64
2021/04/27 07:47:40;;;;;;;3.67;2.38;;;8.60;1.00;;;;;;5052986;28;20423;-63
2021/04/27 07:50:07;;;;;;;2.50;1.60;;;8.70;1.00;;;;;;5052263;28;20186;-64
2021/04/27 07:52:33;;;;;;;4.93;1.90;;;8.80;1.00;;;;;;5052774;28;20177;-64
2021/04/27 07:54:59;;;;;;;7.53;1.50;;;9.00;1.00;;;;;;5062426;28;20187;-64
2021/04/27 07:57:25;;;;;;;2.73;1.80;;;9.20;1.00;;;;;;5073036;28;20194;-66
2021/04/27 07:59:51;;;;;;;4.27;1.93;;;9.20;1.00;;;;;;5072556;28;20503;-66
2021/04/27 08:02:16;;;;;;;4.73;2.40;;;9.00;1.00;;;;;;5072479;28;20199;-66
2021/04/27 08:04:42;;;;;;;4.33;1.80;;;9.10;1.00;;;;;;5071978;28;20222;-64
2021/04/27 08:07:07;;;;;;;1.83;1.40;;;8.90;1.00;;;;;;5072188;28;20243;-65
2021/04/27 08:09:33;;;;;;;2.53;1.90;;;8.90;1.00;;;;;;5071992;28;20191;-64
2021/04/27 08:11:59;;;;;;;3.00;2.33;;;9.20;1.00;;;;;;5072211;28;20202;-66
2021/04/27 08:14:24;;;;;;;2.07;1.87;;;9.50;1.00;;;;;;5070969;28;20276;-65
2021/04/27 08:16:52;;;;;;;2.83;1.60;;;9.60;1.00;;;;;;5076095;28;20195;-66
2021/04/27 08:19:17;;;;;;;2.25;1.50;;;9.70;1.00;;;;;;5076076;28;20221;-65
2021/04/27 08:21:43;;;;;;;4.33;1.67;;;9.60;1.00;;;;;;5076142;28;20184;-63
2021/04/27 08:24:10;;;;;;;1.97;1.20;;;9.70;1.00;;;;;;5075525;28;20245;-65
2021/04/27 08:26:36;;;;;;;2.72;1.60;;;10.10;1.00;;;;;;5074617;28;20212;-63
2021/04/27 08:29:01;;;;;;;2.83;1.63;;;10.10;1.00;;;;;;5075139;28;20519;-67
2021/04/27 08:31:27;;;;;;;2.33;1.67;;;9.80;1.00;;;;;;5074253;28;20638;-66
2021/04/27 08:33:52;;;;;;;3.93;1.50;;;9.90;1.00;;;;;;5074689;28;20234;-65
2021/04/27 08:36:19;;;;;;;3.20;1.83;;;10.20;1.00;;;;;;5075754;28;20220;-66
2021/04/27 08:38:45;;;;;;;2.50;1.92;;;10.10;1.00;;;;;;5054674;28;20577;-65
2021/04/27 08:41:10;;;;;;;2.57;1.80;;;10.50;1.00;;;;;;5034620;28;20189;-65
2021/04/27 08:43:36;;;;;;;3.10;1.53;;;10.50;1.00;;;;;;5034446;28;20543;-67
2021/04/27 08:46:02;;;;;;;2.60;1.53;;;10.60;1.00;;;;;;5048639;28;20667;-66
2021/04/27 08:48:28;;;;;;;4.10;1.87;;;10.30;1.00;;;;;;5055194;28;20271;-67
2021/04/27 08:50:54;;;;;;;2.30;1.80;;;10.40;1.00;;;;;;5054604;28;20438;-65
2021/04/27 08:53:21;;;;;;;2.20;1.50;;;10.30;1.00;;;;;;5055818;28;20188;-65
2021/04/27 08:55:46;;;;;;;1.92;1.35;;;10.50;1.00;;;;;;5045985;28;20181;-67
2021/04/27 08:58:14;;;;;;;2.20;1.67;;;10.30;1.00;;;;;;5035704;28;20185;-66
2021/04/27 09:00:41;;;;;;;1.33;1.20;;;10.50;1.00;;;;;;5035366;28;20454;-68
2021/04/27 09:03:09;;;;;;;3.72;1.40;;;10.40;1.00;;;;;;5034334;28;20469;-64
2021/04/27 09:05:40;;;;;;;3.50;1.70;;;10.40;1.00;;;;;;5034890;28;20592;-66
2021/04/27 09:08:06;;;;;;;1.48;1.35;;;10.40;1.00;;;;;;5035346;28;20173;-64
2021/04/27 09:10:39;;;;;;;4.35;1.42;;;10.20;1.00;;;;;;5035244;28;20185;-67
2021/04/27 09:13:11;;;;;;;3.75;1.60;;;10.10;1.00;;;;;;5034714;28;20187;-64
2021/04/27 09:15:45;;;;;;;2.10;1.40;;;10.10;1.00;;;;;;5034504;28;20534;-64
2021/04/27 09:18:31;;;;;;;1.80;1.48;;;10.30;1.00;;;;;;5035184;28;20247;-64
2021/04/27 09:20:59;;;;;;;1.40;1.00;;;10.60;1.00;;;;;;5035004;28;20177;-63
2021/04/27 09:23:28;;;;;;;4.40;1.35;;;10.60;1.00;;;;;;5050141;28;20200;-63
2021/04/27 09:26:14;;;;;;;2.63;1.23;;;10.60;1.00;;;;;;5052037;28;20275;-65
2021/04/27 09:28:42;;;;;;;3.25;1.60;;;10.60;1.00;;;;;;5054557;28;20191;-65
2021/04/27 09:31:30;;;;;;;1.75;1.30;;;10.60;1.00;;;;;;5055270;28;20252;-65
2021/04/27 09:34:23;;;;;;;2.75;1.52;;;10.90;1.00;;;;;;5054845;28;20260;-65
2021/04/27 09:36:50;;;;;;;2.45;1.65;;;10.70;1.00;;;;;;5055061;28;20625;-64
2021/04/27 09:39:20;;;;;;;2.47;1.50;;;10.50;1.00;;;;;;5053439;28;20283;-64
2021/04/27 09:42:00;;;;;;;2.25;1.20;;;10.50;1.00;;;;;;5054719;28;20192;-63
2021/04/27 09:44:27;;;;;;;3.58;2.30;;;10.70;1.00;;;;;;5054168;28;20256;-66
2021/04/27 09:47:07;;;;;;;2.22;1.45;;;10.70;1.00;;;;;;5044511;28;20209;-66
2021/04/27 09:49:33;;;;;;;2.25;1.40;;;10.60;1.00;;;;;;5034551;28;20204;-64
2021/04/27 09:51:58;;;;;;;2.10;1.20;;;10.80;1.00;;;;;;5034426;28;20571;-64
2021/04/27 09:54:24;;;;;;;1.53;1.33;;;10.80;1.00;;;;;;5033678;28;20516;-66
2021/04/27 09:56:52;;;;;;;1.60;1.50;;;11.30;1.00;;;;;;5034628;28;20354;-66
2021/04/27 09:59:30;;;;;;;1.40;1.30;;;11.60;1.00;;;;;;5034630;28;20178;-65
2021/04/27 10:02:00;;;;;;;2.28;1.10;;;10.90;1.00;;;;;;5033394;28;20253;-65
2021/04/27 10:04:27;;;;;;;1.60;1.40;;;10.70;1.00;;;;;;5034243;28;20177;-64
2021/04/27 10:06:53;;;;;;;1.52;1.30;;;10.70;1.00;;;;;;5034458;28;20213;-64
2021/04/27 10:09:19;;;;;;;1.63;1.20;;;10.40;1.00;;;;;;5034107;28;20204;-64
2021/04/27 10:11:47;;;;;;;2.90;1.42;;;10.30;1.00;;;;;;5034246;28;20214;-64
2021/04/27 10:14:12;;;;;;;1.52;1.20;;;10.40;1.00;;;;;;5033339;28;20180;-66
2021/04/27 10:16:39;;;;;;;4.67;1.77;;;10.60;1.00;;;;;;5051346;28;20188;-66
2021/04/27 10:19:06;;;;;;;3.47;1.65;;;11.20;1.00;;;;;;5054601;28;20189;-66
2021/04/27 10:21:35;;;;;;;3.35;1.70;;;11.40;1.00;;;;;;5054190;28;20218;-63
2021/04/27 10:24:04;;;;;;;1.92;1.58;;;11.40;1.00;;;;;;5053103;28;20184;-63
2021/04/27 10:26:32;;;;;;;1.75;1.48;;;11.20;1.00;;;;;;5053570;28;20212;-63
2021/04/27 10:29:07;;;;;;;3.95;1.80;;;11.20;1.00;;;;;;5053649;28;20234;-64
2021/04/27 10:31:37;;;;;;;2.10;1.40;;;11.40;1.00;;;;;;5053631;28;20600;-63
2021/04/27 10:34:15;;;;;;;3.22;1.67;;;11.50;1.00;;;;;;5053711;28;20207;-63
2021/04/27 10:36:50;;;;;;;1.77;1.65;;;10.90;1.00;;;;;;5053878;28;20195;-63
2021/04/27 10:39:48;;;;;;;1.50;1.40;;;11.20;1.00;;;;;;5052279;28;20180;-63
2021/04/27 10:42:19;;;;;;;2.75;1.67;;;11.30;1.00;;;;;;5054052;28;20185;-63
2021/04/27 10:44:55;;;;;;;2.40;1.20;;;11.30;1.00;;;;;;5052758;28;20318;-66
2021/04/27 10:47:22;;;;;;;1.40;1.25;;;11.30;1.00;;;;;;5053649;28;20610;-65
2021/04/27 10:49:48;;;;;;;2.05;1.13;;;11.40;1.00;;;;;;5052363;28;20609;-65
2021/04/27 10:52:32;;;;;;;4.03;1.20;;;11.30;1.00;;;;;;5053330;28;20177;-65
2021/04/27 10:55:31;;;;;;;2.95;1.60;;;11.40;1.00;;;;;;5052544;28;20260;-64
2021/04/27 10:58:02;;;;;;;2.20;1.30;;;11.20;1.00;;;;;;5052236;28;20179;-63
2021/04/27 11:00:43;;;;;;;2.20;1.27;;;11.30;1.00;;;;;;5052735;28;20191;-63
2021/04/27 11:03:27;;;;;;;1.27;0.70;;;11.00;1.00;;;;;;5053241;28;20185;-63
2021/04/27 11:05:59;;;;;;;1.23;1.10;;;11.40;1.00;;;;;;5052149;28;20531;-63
2021/04/27 11:08:43;;;;;;;1.10;0.98;;;11.30;1.00;;;;;;5050344;28;20185;-64
2021/04/27 11:11:17;;;;;;;1.40;1.30;;;11.40;1.00;;;;;;5037214;28;20593;-63
2021/04/27 11:13:43;;;;;;;2.35;1.38;;;11.50;1.00;;;;;;5052346;28;20177;-62
2021/04/27 11:16:26;;;;;;;1.53;1.20;;;11.70;1.00;;;;;;5042176;28;20208;-62
2021/04/27 11:19:08;;;;;;;1.45;1.05;;;11.50;1.00;;;;;;5032579;28;20467;-62
2021/04/27 11:21:33;;;;;;;2.55;1.50;;;11.50;1.00;;;;;;5032859;28;20204;-64
2021/04/27 11:24:02;;;;;;;1.33;1.00;;;11.70;1.00;;;;;;5042853;28;20597;-62
2021/04/27 11:26:34;;;;;;;2.28;1.20;;;11.70;1.00;;;;;;5052815;28;20222;-66
2021/04/27 11:29:14;;;;;;;2.15;1.30;;;12.00;1.00;;;;;;5052728;28;20263;-65
2021/04/27 11:32:04;;;;;;;4.22;1.13;;;12.00;1.00;;;;;;5052763;28;20169;-66
2021/04/27 11:34:31;;;;;;;1.13;1.02;;;11.90;1.00;;;;;;5051979;28;20241;-67
2021/04/27 11:36:59;;;;;;;2.00;1.15;;;11.70;1.00;;;;;;5052405;28;20183;-66
2021/04/27 11:39:27;;;;;;;1.20;1.00;;;11.50;1.00;;;;;;5052146;28;20173;-66
2021/04/27 11:41:57;;;;;;;1.40;1.08;;;11.80;1.00;;;;;;5040758;28;20584;-66
2021/04/27 11:44:32;;;;;;;2.28;1.27;;;12.00;1.00;;;;;;5032048;28;20237;-65
2021/04/27 11:47:08;;;;;;;1.67;1.33;;;12.40;1.00;;;;;;5041197;28;20301;-66
2021/04/27 11:49:52;;;;;;;1.38;1.02;;;12.40;1.00;;;;;;5051927;28;20181;-67
2021/04/27 11:52:52;;;;;;;1.00;0.90;;;12.00;1.00;;;;;;5056676;28;20249;-63
2021/04/27 11:55:27;;;;;;;1.10;0.95;;;11.80;1.00;;;;;;5054621;28;20303;-62
2021/04/27 11:58:06;;;;;;;1.25;1.13;;;11.50;1.00;;;;;;5055150;28;20647;-64
2021/04/27 12:00:39;;;;;;;0.95;0.80;;;11.50;1.00;;;;;;5056280;28;20606;-64
2021/04/27 12:03:21;;;;;;;1.17;0.93;;;11.30;1.00;;;;;;5055153;28;20585;-64
2021/04/27 12:05:48;;;;;;;1.23;1.05;;;11.60;1.00;;;;;;5055972;28;20630;-64
2021/04/27 12:08:20;;;;;;;2.97;1.02;;;11.50;1.00;;;;;;5056492;28;20312;-66
2021/04/27 12:10:48;;;;;;;1.88;1.05;;;11.70;1.00;;;;;;5056420;28;20178;-65
2021/04/27 12:13:21;;;;;;;1.83;1.30;;;11.90;1.00;;;;;;5055678;28;20599;-67
2021/04/27 12:16:07;;;;;;;1.30;0.98;;;12.10;1.00;;;;;;5044840;28;20350;-66
2021/04/27 12:18:49;;;;;;;1.40;1.30;;;12.30;1.00;;;;;;5034891;28;20189;-66
2021/04/27 12:21:31;;;;;;;1.00;0.90;;;12.20;1.00;;;;;;5036026;28;20567;-66
2021/04/27 12:24:09;;;;;;;1.70;1.00;;;12.60;1.00;;;;;;5046895;28;20272;-66
2021/04/27 12:26:36;;;;;;;1.70;0.88;;;12.20;1.00;;;;;;5055895;28;20216;-64
2021/04/27 12:29:02;;;;;;;1.40;1.10;;;12.20;1.00;;;;;;5055318;28;20253;-65
2021/04/27 12:31:31;;;;;;;1.17;0.98;;;12.00;1.00;;;;;;5055661;28;20180;-65
2021/04/27 12:33:58;;;;;;;1.38;1.08;;;11.80;1.00;;;;;;5054876;28;20207;-66
2021/04/27 12:36:39;;;;;;;1.15;0.85;;;12.00;1.00;;;;;;5054707;28;20556;-66
2021/04/27 12:39:10;;;;;;;1.15;0.80;;;12.40;1.00;;;;;;5055542;28;20273;-66
2021/04/27 12:41:40;;;;;;;1.95;1.40;;;12.20;1.00;;;;;;5055517;28;20177;-67
2021/04/27 12:44:32;;;;;;;3.17;1.20;;;11.80;1.00;;;;;;5054728;28;20510;-67
2021/04/27 12:47:00;;;;;;;1.67;1.10;;;12.30;1.00;;;;;;5041537;28;20289;-66
2021/04/27 12:49:32;;;;;;;1.63;1.02;;;12.30;1.00;;;;;;5034685;28;20190;-66
2021/04/27 12:52:07;;;;;;;2.35;1.13;;;12.40;1.00;;;;;;5035422;28;20195;-66
2021/04/27 12:54:33;;;;;;;2.40;1.80;;;12.20;1.00;;;;;;5034497;28;20196;-65
2021/04/27 12:57:18;;;;;;;1.45;1.10;;;12.10;1.00;;;;;;5035087;28;20173;-66
2021/04/27 12:59:46;;;;;;;4.03;1.20;;;12.30;1.00;;;;;;5035320;28;20196;-66
2021/04/27 13:02:17;;;;;;;1.48;1.13;;;12.40;1.00;;;;;;5033682;28;20606;-68
2021/04/27 13:04:50;;;;;;;1.10;1.00;;;12.60;1.00;;;;;;5034611;28;20178;-68
2021/04/27 13:07:35;;;;;;;2.05;1.00;;;12.60;1.00;;;;;;5033843;28;20177;-69